Terminal Aerodrome Forecast
Issued by NWS Houston/Galveston, TX

Home | Current Version | Previous Version | Text Only | Print | Product List | Glossary On
Versions: 1 2 3 4 5 6 7 8 9 10 11 12 13 14 15 16 17 18 19 20 21 22 23 24 25
000
FTUS44 KHGX 221209 AAA
TAFGLS
TAF AMD
KGLS 221209Z 2212/2312 00000KT P6SM VCSH BKN150
     FM221400 34007KT P6SM -SHRA VCTS BKN020CB BKN140
      TEMPO 2214/2216 36025KT 1SM +TSRA
     FM221800 34012G22KT P6SM SCT025 BKN150
     FM222300 34016G26KT P6SM SCT180=

USA.gov is the U.S. government's official web portal to all federal, state and local government web resources and services.